AirNav   Everest Fuels
 
 1285 users online  

KJPN Pentagon Army Heliport
Washington, District of Columbia, USA

GOING TO WASHINGTON?


FAA INFORMATION EFFECTIVE 21 MAY 2020

Location

FAA Identifier: JPN
Lat/Long: 38-52-26.6000N 077-03-27.0000W
38-52.443333N 077-03.450000W
38.8740556,-77.0575000
(estimated)
Elevation: 40 ft. / 12 m (estimated)
Variation: 09W (1985)
From city: 2 miles SW of WASHINGTON, DC
(HELIPAD PHYSICALLY LCTD ON W SIDE OF PENTAGON BLDG.)
Time zone: UTC -4 (UTC -5 during Standard Time)
Zip code: 22211

Heliport Operations

Heliport use: Private use. Permission required prior to landing
Control tower: yes
ARTCC: WASHINGTON CENTER
FSS: LEESBURG FLIGHT SERVICE STATION
Attendance: MON-FRI 1200-2000Z++
24 HR PPR V227-9250/225-4374.
Segmented circle: no

Heliport Communications

PENTAGON TOWER: 143.1 231.3 [1230-2230Z++MON-FRI; 24 HRS PPR.]
EMERG: 121.5 243.0
WX ASOS at DCA (1.6 nm SE): 132.65 (703-412-8140)
WX AWOS-3 at CGS (9 nm NE): 121.225 (301-864-5497)
WX AWOS-3PT at GAI (18 nm N): 128.275 (301-977-2971)
WX AWOS-3 at FME (19 nm NE): 123.925
WX ASOS at IAD (19 nm W): PHONE 703-661-2990
  • CLSD WKEND & HOL. CDN FOR TIER I/II PSGRS OFFL BUS OPS AT OTR TIMES RQRS APVL FM THE EXEC TIME TVL OFC C703-535-1262/1263.

Nearby radio navigation aids

VOR radial/distance  VOR name  Freq  Var
DCAr321/1.3WASHINGTON VOR/DME111.0009W
ADWr304/9.8ANDREWS VORTAC113.1010W
OTTr315/17.8NOTTINGHAM VORTAC113.7010W
AMLr109/19.4ARMEL VOR/DME113.5008W
BALr237/25.7BALTIMORE VORTAC115.1011W
BRVr032/35.1BROOKE VORTAC114.5009W
FDKr163/(35.5)FREDERICK VOR109.0008W
EMIr194/37.4WESTMINSTER VORTAC117.9008W

 
NDB name  Hdg/Dist  Freq  Var  ID
GEORGETOWN146/4.632309WGTN --. - -.
OXONN359/6.633211WDCA -.. -.-. .-
DAVEE020/13.022309WDAA -.. .- .-
ELLICOTT219/28.037111WFND ..-. -. -..

Heliport Services

Runway Information

Helipad H1

Dimensions: 82 x 82 ft. / 25 x 25 m
HELIPAD DIMENSIONS UNKNOWN.
PAD IS 131 FT ACROSS AND PENTAGON SHAPED. MEASUREMENT IS APPROXIMATE.
Surface: asphalt
Runway edge lights: PERI
Latitude: 38-52.443333N
Longitude: 077-03.450000W
Elevation: 40.0 ft.
Traffic pattern: leftleft

Heliport Ownership and Management from official FAA records

Ownership: U.S. Army
Owner: U.S.ARMY ATCA-ASO
CAMERON STA
ALEXANDRIA, VA 22314
Manager: Phone 703-664-1201

Additional Remarks

OPR 1300-2100Z MON-FRI; CTC OIC C697-9250/695-4374; V227-9250/225-4374; PRK RSTD TO CTL DISCRETION.
C203-695-2776; 203-697-3658/697-8703; V225-2776/227-3658/227-8703. APVL LTD.
SPECIAL PRO TFC PAT. WHEN LDG WEST ALL ARRIVALS ARE EXPECTED TO MAKE LEFT TFC CIRCLING THE PENTAGON AT OR BELOW 200 FT.
FOR CD CTC POTOMAC APCH AT 866-599-3874.
SPECIAL PRO; TFC PAT AND OPR RULES EXIST DUE TO WASHINGTON TCA; PRK; NOISE; FLT PLAN COORDINATION AND VISUAL RTE RSTRNS.
SPECIAL VFR PERMITTED ONLY WHEN WASH NATL PAT CEIL/VIS IS 700 & 1 OR BETTER.
ACFT COMDR MUST HAVE RCV A RTE BRIEFING AND OPR WITH SPECIAL RTE CHART DTD 1 OCT 79; CONTAINING SPECIAL RTE AND JPN TFC PAT.
TRANS PILOTS BRIEFING ARE CONDUCTED AT DAVISON AAF, QUANTICO MCAS, ANDREWS AFB OR TIPTON AAF.
ADVN 24 HOUR FLT INFO WILL BE PASSED TO THE CTC OIC (PENTAGON HELIPORT) PRIOR TO FLT TO INCLUDE:
ARMY COPTER PPR IS PQR FOR CODE 6 OR BELOW. CTC DIR ARMY STAFF (EXECUTIVE SVC);
AFTER DUTY HOURS; CTC MILITARY DISTRICT OF WASHINGTON STAFF DUTY OFFICER (2 HOURS PPR) C202-693-1069/693-1193 OR V223-1193/223-1069.
DATE & TIME OF TKOF/LDG DEP/DESTN; TYPE OF ACFT/NR OF COPTERS INVOLVED; NAME/GRADE SENIOR PERSONS AND NR OF ADDN PAX; PT OF CTC NADE AND FONE NR.

Instrument Procedures

There are no published instrument procedures at KJPN.

Some nearby airports with instrument procedures:

KDCA - Ronald Reagan Washington National Airport (2 nm SE)
KVKX - Potomac Airfield (9 nm SE)
KCGS - College Park Airport (9 nm NE)
W32 - Washington Executive Airport/Hyde Field (10 nm SE)
KADW - Joint Base Andrews (10 nm SE)
KDAA - Davison Army Airfield (11 nm SW)
W00 - Freeway Airport (14 nm E)
2W5 - Maryland Airport (17 nm S)
KGAI - Montgomery County Airpark (18 nm N)
KFME - Tipton Airport (19 nm NE)
 
Loc | Ops | Rwys | IFR | FBO | Links
Com | Nav | Svcs | Stats | Notes
Area around KJPN (Pentagon Army Heliport)
 
Road maps at: MapQuest Bing Google
 
Aerial photo
No photo
 
Sectional chart

 
Airport distance calculator
Flying to Pentagon Army Heliport? Find the distance to fly.

From to KJPN

Sunrise and sunset
Times for 02-Jun-2020
 Local
(UTC-4)
 Zulu
(UTC)
Morning civil twilight05:1409:14
Sunrise05:4509:45
Sunset20:2800:28
Evening civil twilight20:5900:59

Current date and time
Zulu (UTC)  02-Jun-2020 14:05:40
Local (UTC-4)  02-Jun-2020 10:05:40
 
METAR
KDCA 
2nm SE 
021352Z 21004KT 10SM BKN095 OVC110 17/09 A3013 RMK AO2 SLP200 T01670094
KCGS 
9nm NE 
021355Z AUTO 00000KT 10SM OVC100 17/07 A3011 RMK AO1 T01650073
KADW 
10nm E 
021356Z AUTO 25005KT 10SM BKN080 16/10 A3011 RMK AO2 DZB45E49 SLP202 P0000 T01590104 $
KDAA 
11nm SW 
021356Z AUTO 00000KT 10SM FEW080 BKN100 16/10 A3012 RMK AO2 SLP202 T01570096 TSNO $
KGAI 
18nm N 
021356Z AUTO 29005KT 10SM -RA BKN075 BKN090 OVC110 16/09 A3013 RMK AO2 RAE1259B54 SLP216 P0000 T01610094
KFME 
18nm NE 
021355Z AUTO 00000KT 10SM OVC080 16/12 A3013 RMK AO1
KIAD 
19nm W 
021352Z 00000KT 10SM -RA BKN065 BKN090 OVC120 15/10 A3012 RMK AO2 RAB51 SLP199 P0000 T01500100
TAF
KDCA 
2nm SE 
021133Z 0212/0318 24005KT P6SM BKN110 FM021800 21007KT P6SM SCT080 BKN090 FM022300 18007KT P6SM SCT070 BKN090 FM030200 19005KT P6SM FEW060 SCT120 FM030400 22005KT P6SM FEW060 SCT140 FM031200 25007KT P6SM FEW070 SCT250
KADW 
10nm E 
020900Z 0209/0315 22008KT 9999 SCT100 BKN250 QNH3012INS BECMG 0209/0210 22008KT 9999 VCSH OVC100 QNH3005INS BECMG 0215/0216 23008KT 9999 NSW BKN100 BKN250 QNH2992INS BECMG 0220/0221 21010G15KT 9999 SCT100 QNH2987INS BECMG 0300/0301 22008KT 9999 SCT200 QNH2978INS BECMG 0313/0314 25010G20KT 9999 BKN200 QNH2975INS TX24/0221Z TN12/0210Z
KDAA 
11nm SW 
020900Z 0209/0315 VRB06KT 9999 BKN150 QNH3012INS BECMG 0213/0214 VRB06KT 9000 BR OVC090 QNH3007INS BECMG 0217/0218 20012KT 9999 NSW BKN065 QNH3003INS BECMG 0307/0308 23006KT 9999 FEW055 QNH2982INS BECMG 0314/0315 24010G15KT 9999 SKC QNH2979INS TX25/0222Z TN10/0210Z
KIAD 
19nm W 
021133Z 0212/0318 VRB03KT P6SM BKN100 FM030100 19005KT P6SM FEW060 SCT120 FM030400 22005KT P6SM FEW060 SCT200 FM030600 22006KT P6SM FEW150 SCT250 FM031200 25007KT P6SM FEW130 FEW250 FM031500 26011G18KT P6SM SCT250
NOTAMs
Click for the latest NOTAMs
NOTAMs are issued by the DoD/FAA and will open in a separate window not controlled by AirNav.

 

 
 

Would you like to see your business listed on this page?

 If your business provides an interesting product or service to pilots, flight crews, aircraft, or users of the Pentagon Army Heliport, you should consider listing it here.  To start the listing process, click on the button below
 
Add a business
 

Other Pages about Pentagon Army Heliport

Update a link
 
Copyright © AirNav, LLC. All rights reserved. Privacy Policy  Contact